sensor_id;sensor_type;location;lat;lon;timestamp;temperature;humidity
1680;DHT22;838;51.794;12.258;2022-11-15T00:01:52;6.80;93.80
1680;DHT22;838;51.794;12.258;2022-11-15T00:04:18;6.90;93.70
1680;DHT22;838;51.794;12.258;2022-11-15T00:06:44;7.00;93.40
1680;DHT22;838;51.794;12.258;2022-11-15T00:09:09;7.00;92.90
1680;DHT22;838;51.794;12.258;2022-11-15T00:11:35;6.90;92.80
1680;DHT22;838;51.794;12.258;2022-11-15T00:14:01;7.00;92.90
1680;DHT22;838;51.794;12.258;2022-11-15T00:16:29;6.90;92.70
1680;DHT22;838;51.794;12.258;2022-11-15T00:18:55;7.00;92.90
1680;DHT22;838;51.794;12.258;2022-11-15T00:21:22;7.00;92.90
1680;DHT22;838;51.794;12.258;2022-11-15T00:23:48;7.00;92.50
1680;DHT22;838;51.794;12.258;2022-11-15T00:26:14;7.00;92.50
1680;DHT22;838;51.794;12.258;2022-11-15T00:28:41;7.00;91.60
1680;DHT22;838;51.794;12.258;2022-11-15T00:31:10;7.00;91.60
1680;DHT22;838;51.794;12.258;2022-11-15T00:33:37;6.90;91.60
1680;DHT22;838;51.794;12.258;2022-11-15T00:36:04;6.70;92.30
1680;DHT22;838;51.794;12.258;2022-11-15T00:38:34;6.70;93.30
1680;DHT22;838;51.794;12.258;2022-11-15T00:41:02;6.70;93.50
1680;DHT22;838;51.794;12.258;2022-11-15T00:43:28;6.80;93.70
1680;DHT22;838;51.794;12.258;2022-11-15T00:45:54;6.90;93.70
1680;DHT22;838;51.794;12.258;2022-11-15T00:48:19;7.00;93.50
1680;DHT22;838;51.794;12.258;2022-11-15T00:50:45;7.00;92.90
1680;DHT22;838;51.794;12.258;2022-11-15T00:53:12;7.10;92.70
1680;DHT22;838;51.794;12.258;2022-11-15T00:55:37;7.10;92.30
1680;DHT22;838;51.794;12.258;2022-11-15T00:58:03;7.10;92.20
1680;DHT22;838;51.794;12.258;2022-11-15T01:00:29;7.10;91.90
1680;DHT22;838;51.794;12.258;2022-11-15T01:02:55;7.10;92.00
1680;DHT22;838;51.794;12.258;2022-11-15T01:05:20;7.10;92.00
1680;DHT22;838;51.794;12.258;2022-11-15T01:07:46;7.10;92.30
1680;DHT22;838;51.794;12.258;2022-11-15T01:10:12;7.20;92.00
1680;DHT22;838;51.794;12.258;2022-11-15T01:12:38;7.30;91.70
1680;DHT22;838;51.794;12.258;2022-11-15T01:15:04;7.30;91.20
1680;DHT22;838;51.794;12.258;2022-11-15T01:17:30;7.30;91.80
1680;DHT22;838;51.794;12.258;2022-11-15T01:19:56;7.30;92.10
1680;DHT22;838;51.794;12.258;2022-11-15T01:22:22;7.40;91.90
1680;DHT22;838;51.794;12.258;2022-11-15T01:24:49;7.50;91.80
1680;DHT22;838;51.794;12.258;2022-11-15T01:27:15;7.50;91.50
1680;DHT22;838;51.794;12.258;2022-11-15T01:29:41;7.50;91.50
1680;DHT22;838;51.794;12.258;2022-11-15T01:32:07;7.60;91.40
1680;DHT22;838;51.794;12.258;2022-11-15T01:34:32;7.60;91.40
1680;DHT22;838;51.794;12.258;2022-11-15T01:36:58;7.70;91.30
1680;DHT22;838;51.794;12.258;2022-11-15T01:39:24;7.70;91.30
1680;DHT22;838;51.794;12.258;2022-11-15T01:41:50;7.70;91.00
1680;DHT22;838;51.794;12.258;2022-11-15T01:44:44;7.70;91.00
1680;DHT22;838;51.794;12.258;2022-11-15T01:50:10;7.70;90.90
1680;DHT22;838;51.794;12.258;2022-11-15T01:52:37;7.70;91.10
1680;DHT22;838;51.794;12.258;2022-11-15T01:55:17;7.70;91.20
1680;DHT22;838;51.794;12.258;2022-11-15T01:57:46;7.70;91.00
1680;DHT22;838;51.794;12.258;2022-11-15T02:00:13;7.70;90.90
1680;DHT22;838;51.794;12.258;2022-11-15T02:02:39;7.70;91.00
1680;DHT22;838;51.794;12.258;2022-11-15T02:05:06;7.70;90.70
1680;DHT22;838;51.794;12.258;2022-11-15T02:07:34;7.80;90.50
1680;DHT22;838;51.794;12.258;2022-11-15T02:10:24;7.80;90.70
1680;DHT22;838;51.794;12.258;2022-11-15T02:12:49;7.70;90.70
1680;DHT22;838;51.794;12.258;2022-11-15T02:15:16;7.60;90.90
1680;DHT22;838;51.794;12.258;2022-11-15T02:18:24;7.50;91.20
1680;DHT22;838;51.794;12.258;2022-11-15T02:29:14;7.20;92.40
1680;DHT22;838;51.794;12.258;2022-11-15T02:34:33;7.20;92.60
1680;DHT22;838;51.794;12.258;2022-11-15T02:39:53;7.20;92.80
1680;DHT22;838;51.794;12.258;2022-11-15T02:42:28;7.30;93.00
1680;DHT22;838;51.794;12.258;2022-11-15T02:45:30;7.30;93.00
1680;DHT22;838;51.794;12.258;2022-11-15T02:47:58;7.30;92.50
1680;DHT22;838;51.794;12.258;2022-11-15T02:50:27;7.50;92.20
1680;DHT22;838;51.794;12.258;2022-11-15T02:52:54;7.60;91.70
1680;DHT22;838;51.794;12.258;2022-11-15T02:55:40;7.70;91.50
1680;DHT22;838;51.794;12.258;2022-11-15T02:58:23;7.70;91.00
1680;DHT22;838;51.794;12.258;2022-11-15T03:06:40;7.70;91.10
1680;DHT22;838;51.794;12.258;2022-11-15T03:09:32;7.60;90.60
1680;DHT22;838;51.794;12.258;2022-11-15T03:29:41;7.60;90.90
1680;DHT22;838;51.794;12.258;2022-11-15T03:33:06;7.50;91.00
1680;DHT22;838;51.794;12.258;2022-11-15T03:36:07;7.40;91.80
1680;DHT22;838;51.794;12.258;2022-11-15T03:52:44;7.60;91.40
1680;DHT22;838;51.794;12.258;2022-11-15T03:58:46;7.60;91.10
1680;DHT22;838;51.794;12.258;2022-11-15T04:02:16;7.70;91.10
1680;DHT22;838;51.794;12.258;2022-11-15T04:08:22;7.70;90.10
1680;DHT22;838;51.794;12.258;2022-11-15T04:20:54;7.70;89.10
1680;DHT22;838;51.794;12.258;2022-11-15T04:55:32;7.40;92.30
1680;DHT22;838;51.794;12.258;2022-11-15T04:58:35;7.50;91.80
1680;DHT22;838;51.794;12.258;2022-11-15T05:08:18;7.50;92.00
1680;DHT22;838;51.794;12.258;2022-11-15T06:12:30;8.60;78.40
1680;DHT22;838;51.794;12.258;2022-11-15T06:29:03;7.90;82.20
1680;DHT22;838;51.794;12.258;2022-11-15T06:39:26;7.70;80.60
1680;DHT22;838;51.794;12.258;2022-11-15T07:02:10;8.10;78.60
1680;DHT22;838;51.794;12.258;2022-11-15T07:08:17;8.40;76.90
1680;DHT22;838;51.794;12.258;2022-11-15T07:21:08;9.30;75.60
1680;DHT22;838;51.794;12.258;2022-11-15T07:23:46;9.80;68.90
1680;DHT22;838;51.794;12.258;2022-11-15T07:26:12;10.30;65.10
1680;DHT22;838;51.794;12.258;2022-11-15T07:28:37;10.80;60.00
1680;DHT22;838;51.794;12.258;2022-11-15T07:31:06;11.30;57.70
1680;DHT22;838;51.794;12.258;2022-11-15T07:33:32;11.50;49.40
1680;DHT22;838;51.794;12.258;2022-11-15T07:36:03;11.20;48.80
1680;DHT22;838;51.794;12.258;2022-11-15T07:38:29;11.40;49.90
1680;DHT22;838;51.794;12.258;2022-11-15T07:40:59;11.70;46.80
1680;DHT22;838;51.794;12.258;2022-11-15T07:43:26;12.20;43.50
1680;DHT22;838;51.794;12.258;2022-11-15T07:45:55;12.30;37.20
1680;DHT22;838;51.794;12.258;2022-11-15T07:48:21;12.20;41.10
1680;DHT22;838;51.794;12.258;2022-11-15T07:50:47;12.20;39.40
1680;DHT22;838;51.794;12.258;2022-11-15T07:53:13;12.10;43.30
1680;DHT22;838;51.794;12.258;2022-11-15T07:55:41;12.00;42.50
1680;DHT22;838;51.794;12.258;2022-11-15T07:58:12;11.80;45.50
1680;DHT22;838;51.794;12.258;2022-11-15T08:00:39;11.20;52.10
1680;DHT22;838;51.794;12.258;2022-11-15T08:03:14;10.80;59.30
1680;DHT22;838;51.794;12.258;2022-11-15T08:05:49;10.80;60.00
1680;DHT22;838;51.794;12.258;2022-11-15T08:08:19;10.70;60.90
1680;DHT22;838;51.794;12.258;2022-11-15T08:10:47;10.50;63.80
1680;DHT22;838;51.794;12.258;2022-11-15T08:15:42;11.00;59.70
1680;DHT22;838;51.794;12.258;2022-11-15T08:18:18;11.00;57.50
1680;DHT22;838;51.794;12.258;2022-11-15T08:20:44;11.00;58.70
1680;DHT22;838;51.794;12.258;2022-11-15T08:23:11;11.30;58.80
1680;DHT22;838;51.794;12.258;2022-11-15T08:25:41;11.60;54.80
1680;DHT22;838;51.794;12.258;2022-11-15T08:28:09;11.90;53.10
1680;DHT22;838;51.794;12.258;2022-11-15T08:30:39;12.30;50.10
1680;DHT22;838;51.794;12.258;2022-11-15T08:33:10;12.40;47.20
1680;DHT22;838;51.794;12.258;2022-11-15T08:35:36;13.10;43.20
1680;DHT22;838;51.794;12.258;2022-11-15T08:38:02;13.60;32.90
1680;DHT22;838;51.794;12.258;2022-11-15T08:40:28;13.90;28.40
1680;DHT22;838;51.794;12.258;2022-11-15T08:42:54;14.50;23.80
1680;DHT22;838;51.794;12.258;2022-11-15T08:45:20;14.70;17.30
1680;DHT22;838;51.794;12.258;2022-11-15T08:47:46;15.10;19.00
1680;DHT22;838;51.794;12.258;2022-11-15T08:50:11;15.40;15.00
1680;DHT22;838;51.794;12.258;2022-11-15T08:52:37;15.70;10.80
1680;DHT22;838;51.794;12.258;2022-11-15T08:55:03;15.70;9.10
1680;DHT22;838;51.794;12.258;2022-11-15T08:57:29;15.40;12.50
1680;DHT22;838;51.794;12.258;2022-11-15T08:59:56;15.50;11.00
1680;DHT22;838;51.794;12.258;2022-11-15T09:02:22;15.10;10.60
1680;DHT22;838;51.794;12.258;2022-11-15T09:04:48;14.70;15.90
1680;DHT22;838;51.794;12.258;2022-11-15T09:07:14;14.40;20.00
1680;DHT22;838;51.794;12.258;2022-11-15T09:09:40;14.30;22.90
1680;DHT22;838;51.794;12.258;2022-11-15T09:12:08;13.80;28.20
1680;DHT22;838;51.794;12.258;2022-11-15T09:14:34;13.80;28.30
1680;DHT22;838;51.794;12.258;2022-11-15T09:17:03;13.70;30.70
1680;DHT22;838;51.794;12.258;2022-11-15T09:19:29;13.40;37.60
1680;DHT22;838;51.794;12.258;2022-11-15T09:21:58;13.00;41.40
1680;DHT22;838;51.794;12.258;2022-11-15T09:24:24;12.60;46.60
1680;DHT22;838;51.794;12.258;2022-11-15T09:26:51;12.30;47.60
1680;DHT22;838;51.794;12.258;2022-11-15T09:29:17;12.20;50.00
1680;DHT22;838;51.794;12.258;2022-11-15T09:31:43;12.10;52.50
1680;DHT22;838;51.794;12.258;2022-11-15T09:34:09;12.10;53.20
1680;DHT22;838;51.794;12.258;2022-11-15T09:36:35;12.20;52.30
1680;DHT22;838;51.794;12.258;2022-11-15T09:39:01;12.30;53.20
1680;DHT22;838;51.794;12.258;2022-11-15T09:41:36;12.20;50.10
1680;DHT22;838;51.794;12.258;2022-11-15T09:49:33;12.40;49.20
1680;DHT22;838;51.794;12.258;2022-11-15T09:51:59;12.50;50.70
1680;DHT22;838;51.794;12.258;2022-11-15T09:54:36;12.50;52.00
1680;DHT22;838;51.794;12.258;2022-11-15T09:57:31;12.50;51.50
1680;DHT22;838;51.794;12.258;2022-11-15T10:00:24;12.50;48.80
1680;DHT22;838;51.794;12.258;2022-11-15T10:03:06;12.50;45.90
1680;DHT22;838;51.794;12.258;2022-11-15T10:05:38;12.50;47.80
1680;DHT22;838;51.794;12.258;2022-11-15T10:08:24;12.50;49.40
1680;DHT22;838;51.794;12.258;2022-11-15T10:11:32;12.60;49.40
1680;DHT22;838;51.794;12.258;2022-11-15T10:14:22;12.80;48.50
1680;DHT22;838;51.794;12.258;2022-11-15T10:22:31;13.10;43.10
1680;DHT22;838;51.794;12.258;2022-11-15T10:27:35;13.50;41.10
1680;DHT22;838;51.794;12.258;2022-11-15T10:30:06;13.60;40.80
1680;DHT22;838;51.794;12.258;2022-11-15T10:32:36;13.70;38.70
1680;DHT22;838;51.794;12.258;2022-11-15T10:37:47;13.50;41.50
1680;DHT22;838;51.794;12.258;2022-11-15T10:40:24;13.40;39.80
1680;DHT22;838;51.794;12.258;2022-11-15T10:45:34;13.80;34.20
1680;DHT22;838;51.794;12.258;2022-11-15T10:50:47;13.90;34.60
1680;DHT22;838;51.794;12.258;2022-11-15T10:53:31;14.00;33.90
1680;DHT22;838;51.794;12.258;2022-11-15T10:56:07;14.10;33.90
1680;DHT22;838;51.794;12.258;2022-11-15T10:58:45;14.00;31.40
1680;DHT22;838;51.794;12.258;2022-11-15T11:01:18;14.20;30.10
1680;DHT22;838;51.794;12.258;2022-11-15T11:03:57;14.20;29.20
1680;DHT22;838;51.794;12.258;2022-11-15T11:06:24;14.00;26.70
1680;DHT22;838;51.794;12.258;2022-11-15T11:11:25;14.00;31.20
1680;DHT22;838;51.794;12.258;2022-11-15T11:14:27;14.00;33.10
1680;DHT22;838;51.794;12.258;2022-11-15T11:23:00;14.20;29.90
1680;DHT22;838;51.794;12.258;2022-11-15T11:28:41;14.40;24.50
1680;DHT22;838;51.794;12.258;2022-11-15T11:34:19;14.40;20.40
1680;DHT22;838;51.794;12.258;2022-11-15T11:37:20;14.30;21.50
1680;DHT22;838;51.794;12.258;2022-11-15T11:40:17;14.30;23.00
1680;DHT22;838;51.794;12.258;2022-11-15T11:42:59;14.50;22.00
1680;DHT22;838;51.794;12.258;2022-11-15T11:50:32;14.80;21.00
1680;DHT22;838;51.794;12.258;2022-11-15T11:53:11;14.80;17.70
1680;DHT22;838;51.794;12.258;2022-11-15T11:55:45;14.80;18.60
1680;DHT22;838;51.794;12.258;2022-11-15T11:58:43;14.90;20.70
1680;DHT22;838;51.794;12.258;2022-11-15T12:01:25;15.10;14.80
1680;DHT22;838;51.794;12.258;2022-11-15T12:06:46;15.00;11.50
1680;DHT22;838;51.794;12.258;2022-11-15T12:09:43;14.80;16.60
1680;DHT22;838;51.794;12.258;2022-11-15T12:17:41;14.80;14.80
1680;DHT22;838;51.794;12.258;2022-11-15T12:20:17;14.70;15.00
1680;DHT22;838;51.794;12.258;2022-11-15T12:22:49;14.60;16.60
1680;DHT22;838;51.794;12.258;2022-11-15T12:29:11;14.80;18.00
1680;DHT22;838;51.794;12.258;2022-11-15T12:33:45;15.10;11.80
1680;DHT22;838;51.794;12.258;2022-11-15T12:36:39;15.20;13.10
1680;DHT22;838;51.794;12.258;2022-11-15T12:39:07;15.10;12.70
1680;DHT22;838;51.794;12.258;2022-11-15T12:41:36;15.20;18.30
1680;DHT22;838;51.794;12.258;2022-11-15T12:44:03;15.20;11.30
1680;DHT22;838;51.794;12.258;2022-11-15T12:49:08;15.20;11.00
1680;DHT22;838;51.794;12.258;2022-11-15T12:57:23;15.10;11.80
1680;DHT22;838;51.794;12.258;2022-11-15T13:02:44;15.30;12.10
1680;DHT22;838;51.794;12.258;2022-11-15T13:17:56;15.60;11.50
1680;DHT22;838;51.794;12.258;2022-11-15T13:20:32;15.70;12.40
1680;DHT22;838;51.794;12.258;2022-11-15T13:23:15;15.70;12.00
1680;DHT22;838;51.794;12.258;2022-11-15T13:28:20;15.90;5.70
1680;DHT22;838;51.794;12.258;2022-11-15T13:36:15;16.00;5.80
1680;DHT22;838;51.794;12.258;2022-11-15T13:38:44;15.80;5.70
1680;DHT22;838;51.794;12.258;2022-11-15T13:41:23;15.70;8.00
1680;DHT22;838;51.794;12.258;2022-11-15T13:43:51;15.80;6.30
1680;DHT22;838;51.794;12.258;2022-11-15T13:46:20;15.70;8.00
1680;DHT22;838;51.794;12.258;2022-11-15T13:48:51;15.50;8.20
1680;DHT22;838;51.794;12.258;2022-11-15T13:53:51;15.30;12.80
1680;DHT22;838;51.794;12.258;2022-11-15T13:56:19;15.20;12.10
1680;DHT22;838;51.794;12.258;2022-11-15T13:58:46;15.40;11.40
1680;DHT22;838;51.794;12.258;2022-11-15T14:01:18;15.60;8.30
1680;DHT22;838;51.794;12.258;2022-11-15T14:04:01;15.70;6.40
1680;DHT22;838;51.794;12.258;2022-11-15T14:06:29;15.60;8.10
1680;DHT22;838;51.794;12.258;2022-11-15T14:09:29;15.70;8.00
1680;DHT22;838;51.794;12.258;2022-11-15T14:11:56;16.10;5.50
1680;DHT22;838;51.794;12.258;2022-11-15T14:14:27;16.40;2.10
1680;DHT22;838;51.794;12.258;2022-11-15T14:16:59;16.40;2.10
1680;DHT22;838;51.794;12.258;2022-11-15T14:22:43;16.20;3.50
1680;DHT22;838;51.794;12.258;2022-11-15T14:27:41;15.90;5.90
1680;DHT22;838;51.794;12.258;2022-11-15T14:30:16;16.10;4.40
1680;DHT22;838;51.794;12.258;2022-11-15T14:32:47;16.30;2.90
1680;DHT22;838;51.794;12.258;2022-11-15T14:35:21;16.30;4.40
1680;DHT22;838;51.794;12.258;2022-11-15T14:37:47;16.10;6.40
1680;DHT22;838;51.794;12.258;2022-11-15T14:40:18;15.70;11.00
1680;DHT22;838;51.794;12.258;2022-11-15T14:42:46;15.30;15.50
1680;DHT22;838;51.794;12.258;2022-11-15T14:45:17;15.00;19.00
1680;DHT22;838;51.794;12.258;2022-11-15T14:47:43;15.10;17.90
1680;DHT22;838;51.794;12.258;2022-11-15T14:50:17;15.10;17.80
1680;DHT22;838;51.794;12.258;2022-11-15T14:52:44;15.00;19.60
1680;DHT22;838;51.794;12.258;2022-11-15T14:55:25;15.00;18.50
1680;DHT22;838;51.794;12.258;2022-11-15T14:57:50;15.20;16.70
1680;DHT22;838;51.794;12.258;2022-11-15T15:00:18;15.20;16.80
1680;DHT22;838;51.794;12.258;2022-11-15T15:02:45;15.10;17.90
1680;DHT22;838;51.794;12.258;2022-11-15T15:05:20;15.00;17.10
1680;DHT22;838;51.794;12.258;2022-11-15T15:07:46;15.10;16.10
1680;DHT22;838;51.794;12.258;2022-11-15T15:10:13;15.20;14.90
1680;DHT22;838;51.794;12.258;2022-11-15T15:12:39;15.30;14.60
1680;DHT22;838;51.794;12.258;2022-11-15T15:15:06;15.20;15.20
1680;DHT22;838;51.794;12.258;2022-11-15T15:17:32;15.10;15.40
1680;DHT22;838;51.794;12.258;2022-11-15T15:19:57;15.00;16.40
1680;DHT22;838;51.794;12.258;2022-11-15T15:22:27;14.90;16.60
1680;DHT22;838;51.794;12.258;2022-11-15T15:24:53;14.80;16.80
1680;DHT22;838;51.794;12.258;2022-11-15T15:27:19;14.70;17.90
1680;DHT22;838;51.794;12.258;2022-11-15T15:29:45;14.50;19.00
1680;DHT22;838;51.794;12.258;2022-11-15T15:32:11;14.40;19.50
1680;DHT22;838;51.794;12.258;2022-11-15T15:34:38;14.30;20.70
1680;DHT22;838;51.794;12.258;2022-11-15T15:37:24;14.10;21.80
1680;DHT22;838;51.794;12.258;2022-11-15T15:39:55;13.90;23.90
1680;DHT22;838;51.794;12.258;2022-11-15T15:42:22;13.70;24.90
1680;DHT22;838;51.794;12.258;2022-11-15T15:44:51;13.60;25.40
1680;DHT22;838;51.794;12.258;2022-11-15T15:47:22;13.50;26.30
1680;DHT22;838;51.794;12.258;2022-11-15T15:49:49;13.20;28.30
1680;DHT22;838;51.794;12.258;2022-11-15T15:52:15;13.10;31.00
1680;DHT22;838;51.794;12.258;2022-11-15T15:57:10;13.10;29.90
1680;DHT22;838;51.794;12.258;2022-11-15T15:59:37;13.10;30.10
1680;DHT22;838;51.794;12.258;2022-11-15T16:02:04;13.10;30.70
1680;DHT22;838;51.794;12.258;2022-11-15T16:04:30;12.90;33.90
1680;DHT22;838;51.794;12.258;2022-11-15T16:07:02;12.90;31.70
1680;DHT22;838;51.794;12.258;2022-11-15T16:09:33;12.90;28.70
1680;DHT22;838;51.794;12.258;2022-11-15T16:12:18;12.90;28.20
1680;DHT22;838;51.794;12.258;2022-11-15T16:14:44;12.90;27.90
1680;DHT22;838;51.794;12.258;2022-11-15T16:17:21;12.80;27.70
1680;DHT22;838;51.794;12.258;2022-11-15T16:19:48;12.80;26.80
1680;DHT22;838;51.794;12.258;2022-11-15T16:22:14;12.50;27.00
1680;DHT22;838;51.794;12.258;2022-11-15T16:24:39;12.30;30.90
1680;DHT22;838;51.794;12.258;2022-11-15T16:27:09;12.10;33.90
1680;DHT22;838;51.794;12.258;2022-11-15T16:29:37;12.00;37.00
1680;DHT22;838;51.794;12.258;2022-11-15T16:32:03;11.90;37.60
1680;DHT22;838;51.794;12.258;2022-11-15T16:34:29;11.80;37.10
1680;DHT22;838;51.794;12.258;2022-11-15T16:36:55;11.80;37.60
1680;DHT22;838;51.794;12.258;2022-11-15T16:39:22;11.80;37.40
1680;DHT22;838;51.794;12.258;2022-11-15T16:41:48;11.90;37.20
1680;DHT22;838;51.794;12.258;2022-11-15T16:44:14;11.90;34.60
1680;DHT22;838;51.794;12.258;2022-11-15T16:46:43;11.90;35.90
1680;DHT22;838;51.794;12.258;2022-11-15T16:49:14;11.90;33.70
1680;DHT22;838;51.794;12.258;2022-11-15T16:51:40;11.80;35.50
1680;DHT22;838;51.794;12.258;2022-11-15T16:54:10;11.70;41.90
1680;DHT22;838;51.794;12.258;2022-11-15T16:56:36;11.60;38.80
1680;DHT22;838;51.794;12.258;2022-11-15T16:59:03;11.60;35.40
1680;DHT22;838;51.794;12.258;2022-11-15T17:01:37;11.70;34.50
1680;DHT22;838;51.794;12.258;2022-11-15T17:04:16;11.70;35.40
1680;DHT22;838;51.794;12.258;2022-11-15T17:06:44;11.80;36.40
1680;DHT22;838;51.794;12.258;2022-11-15T17:09:13;11.80;34.60
1680;DHT22;838;51.794;12.258;2022-11-15T17:11:40;11.80;32.90
1680;DHT22;838;51.794;12.258;2022-11-15T17:14:06;11.70;30.80
1680;DHT22;838;51.794;12.258;2022-11-15T17:16:32;11.60;30.20
1680;DHT22;838;51.794;12.258;2022-11-15T17:19:00;11.30;33.80
1680;DHT22;838;51.794;12.258;2022-11-15T17:21:26;11.00;40.00
1680;DHT22;838;51.794;12.258;2022-11-15T17:23:58;10.80;46.20
1680;DHT22;838;51.794;12.258;2022-11-15T17:26:24;10.70;43.20
1680;DHT22;838;51.794;12.258;2022-11-15T17:28:54;10.40;60.70
1680;DHT22;838;51.794;12.258;2022-11-15T17:31:20;10.10;72.70
1680;DHT22;838;51.794;12.258;2022-11-15T17:33:46;9.90;81.50
1680;DHT22;838;51.794;12.258;2022-11-15T17:36:11;9.80;85.30
1680;DHT22;838;51.794;12.258;2022-11-15T17:38:40;9.80;86.40
1680;DHT22;838;51.794;12.258;2022-11-15T17:41:13;9.90;87.70
1680;DHT22;838;51.794;12.258;2022-11-15T17:43:39;9.80;88.20
1680;DHT22;838;51.794;12.258;2022-11-15T17:46:08;9.80;90.00
1680;DHT22;838;51.794;12.258;2022-11-15T17:48:35;9.70;90.60
1680;DHT22;838;51.794;12.258;2022-11-15T17:51:03;9.60;91.20
1680;DHT22;838;51.794;12.258;2022-11-15T17:53:38;9.60;91.00
1680;DHT22;838;51.794;12.258;2022-11-15T17:56:13;9.60;91.00
1680;DHT22;838;51.794;12.258;2022-11-15T17:58:39;9.70;89.00
1680;DHT22;838;51.794;12.258;2022-11-15T18:03:37;10.30;72.50
1680;DHT22;838;51.794;12.258;2022-11-15T18:06:04;10.30;68.20
1680;DHT22;838;51.794;12.258;2022-11-15T18:08:31;10.10;73.70
1680;DHT22;838;51.794;12.258;2022-11-15T18:11:03;10.00;75.50
1680;DHT22;838;51.794;12.258;2022-11-15T18:13:30;10.20;73.90
1680;DHT22;838;51.794;12.258;2022-11-15T18:15:55;10.40;68.60
1680;DHT22;838;51.794;12.258;2022-11-15T18:18:27;10.60;64.20
1680;DHT22;838;51.794;12.258;2022-11-15T18:21:10;10.70;62.80
1680;DHT22;838;51.794;12.258;2022-11-15T18:23:36;10.80;62.10
1680;DHT22;838;51.794;12.258;2022-11-15T18:26:04;10.80;59.30
1680;DHT22;838;51.794;12.258;2022-11-15T18:28:35;10.80;60.40
1680;DHT22;838;51.794;12.258;2022-11-15T18:31:02;10.90;58.40
1680;DHT22;838;51.794;12.258;2022-11-15T18:33:32;10.90;54.70
1680;DHT22;838;51.794;12.258;2022-11-15T18:36:03;10.80;55.90
1680;DHT22;838;51.794;12.258;2022-11-15T18:38:29;10.50;59.40
1680;DHT22;838;51.794;12.258;2022-11-15T18:41:07;9.90;67.90
1680;DHT22;838;51.794;12.258;2022-11-15T18:43:34;9.50;74.30
1680;DHT22;838;51.794;12.258;2022-11-15T18:46:12;9.30;77.80
1680;DHT22;838;51.794;12.258;2022-11-15T18:48:40;9.50;73.40
1680;DHT22;838;51.794;12.258;2022-11-15T18:51:09;9.60;69.30
1680;DHT22;838;51.794;12.258;2022-11-15T18:53:36;9.30;75.20
1680;DHT22;838;51.794;12.258;2022-11-15T18:58:40;8.90;86.70
1680;DHT22;838;51.794;12.258;2022-11-15T19:01:14;8.90;86.40
1680;DHT22;838;51.794;12.258;2022-11-15T19:03:42;8.80;85.70
1680;DHT22;838;51.794;12.258;2022-11-15T19:06:19;8.80;89.60
1680;DHT22;838;51.794;12.258;2022-11-15T19:08:47;8.90;91.50
1680;DHT22;838;51.794;12.258;2022-11-15T19:11:19;9.10;91.70
1680;DHT22;838;51.794;12.258;2022-11-15T19:13:52;9.20;91.80
1680;DHT22;838;51.794;12.258;2022-11-15T19:16:20;9.20;91.00
1680;DHT22;838;51.794;12.258;2022-11-15T19:18:45;9.30;90.60
1680;DHT22;838;51.794;12.258;2022-11-15T19:21:12;9.30;90.50
1680;DHT22;838;51.794;12.258;2022-11-15T19:23:39;9.50;89.60
1680;DHT22;838;51.794;12.258;2022-11-15T19:26:09;9.70;84.30
1680;DHT22;838;51.794;12.258;2022-11-15T19:28:35;9.90;84.30
1680;DHT22;838;51.794;12.258;2022-11-15T19:33:35;10.30;83.30
1680;DHT22;838;51.794;12.258;2022-11-15T19:36:03;10.40;83.10
1680;DHT22;838;51.794;12.258;2022-11-15T19:38:30;10.40;81.70
1680;DHT22;838;51.794;12.258;2022-11-15T19:41:01;10.40;84.30
1680;DHT22;838;51.794;12.258;2022-11-15T19:43:28;10.30;84.50
1680;DHT22;838;51.794;12.258;2022-11-15T19:46:04;10.20;86.40
1680;DHT22;838;51.794;12.258;2022-11-15T19:48:32;10.00;86.60
1680;DHT22;838;51.794;12.258;2022-11-15T19:51:09;9.90;89.90
1680;DHT22;838;51.794;12.258;2022-11-15T19:53:35;9.90;90.30
1680;DHT22;838;51.794;12.258;2022-11-15T19:56:11;9.90;90.80
1680;DHT22;838;51.794;12.258;2022-11-15T19:58:38;9.90;90.30
1680;DHT22;838;51.794;12.258;2022-11-15T20:01:12;9.90;90.90
1680;DHT22;838;51.794;12.258;2022-11-15T20:03:39;10.00;89.60
1680;DHT22;838;51.794;12.258;2022-11-15T20:06:10;10.00;90.10
1680;DHT22;838;51.794;12.258;2022-11-15T20:08:36;10.00;90.10
1680;DHT22;838;51.794;12.258;2022-11-15T20:11:03;10.00;89.70
1680;DHT22;838;51.794;12.258;2022-11-15T20:13:30;10.20;89.70
1680;DHT22;838;51.794;12.258;2022-11-15T20:15:56;10.30;88.20
1680;DHT22;838;51.794;12.258;2022-11-15T20:18:23;10.40;87.50
1680;DHT22;838;51.794;12.258;2022-11-15T20:20:49;10.40;85.00
1680;DHT22;838;51.794;12.258;2022-11-15T20:23:16;10.30;86.30
1680;DHT22;838;51.794;12.258;2022-11-15T20:25:45;10.20;87.70
1680;DHT22;838;51.794;12.258;2022-11-15T20:28:17;10.10;88.30
1680;DHT22;838;51.794;12.258;2022-11-15T20:30:44;10.30;87.20
1680;DHT22;838;51.794;12.258;2022-11-15T20:33:11;10.70;84.30
1680;DHT22;838;51.794;12.258;2022-11-15T20:35:38;10.90;80.10
1680;DHT22;838;51.794;12.258;2022-11-15T20:38:09;11.20;76.80
1680;DHT22;838;51.794;12.258;2022-11-15T20:40:35;11.40;73.70
1680;DHT22;838;51.794;12.258;2022-11-15T20:43:01;11.60;70.80
1680;DHT22;838;51.794;12.258;2022-11-15T20:45:27;11.80;66.90
1680;DHT22;838;51.794;12.258;2022-11-15T20:47:59;11.90;64.90
1680;DHT22;838;51.794;12.258;2022-11-15T20:50:25;12.10;63.20
1680;DHT22;838;51.794;12.258;2022-11-15T20:52:52;11.90;61.90
1680;DHT22;838;51.794;12.258;2022-11-15T20:55:18;11.50;63.70
1680;DHT22;838;51.794;12.258;2022-11-15T20:57:44;11.00;68.40
1680;DHT22;838;51.794;12.258;2022-11-15T21:00:10;10.70;72.90
1680;DHT22;838;51.794;12.258;2022-11-15T21:02:36;10.50;72.80
1680;DHT22;838;51.794;12.258;2022-11-15T21:05:03;10.10;77.60
1680;DHT22;838;51.794;12.258;2022-11-15T21:07:29;10.00;79.30
1680;DHT22;838;51.794;12.258;2022-11-15T21:09:55;9.90;82.10
1680;DHT22;838;51.794;12.258;2022-11-15T21:12:39;9.90;80.40
1680;DHT22;838;51.794;12.258;2022-11-15T21:15:05;9.70;82.70
1680;DHT22;838;51.794;12.258;2022-11-15T21:17:32;9.70;82.80
1680;DHT22;838;51.794;12.258;2022-11-15T21:19:58;9.60;83.40
1680;DHT22;838;51.794;12.258;2022-11-15T21:22:26;9.50;83.70
1680;DHT22;838;51.794;12.258;2022-11-15T21:24:52;9.20;84.30
1680;DHT22;838;51.794;12.258;2022-11-15T21:27:18;9.20;87.30
1680;DHT22;838;51.794;12.258;2022-11-15T21:29:45;9.20;87.90
1680;DHT22;838;51.794;12.258;2022-11-15T21:32:14;9.10;88.70
1680;DHT22;838;51.794;12.258;2022-11-15T21:34:40;9.20;87.80
1680;DHT22;838;51.794;12.258;2022-11-15T21:37:06;9.10;86.40
1680;DHT22;838;51.794;12.258;2022-11-15T21:39:32;9.00;87.90
1680;DHT22;838;51.794;12.258;2022-11-15T21:41:58;8.90;87.40
1680;DHT22;838;51.794;12.258;2022-11-15T21:44:23;8.70;88.70
1680;DHT22;838;51.794;12.258;2022-11-15T21:46:49;8.50;90.10
1680;DHT22;838;51.794;12.258;2022-11-15T21:49:15;8.50;90.10
1680;DHT22;838;51.794;12.258;2022-11-15T21:51:41;8.50;90.50
1680;DHT22;838;51.794;12.258;2022-11-15T21:54:08;8.50;90.40
1680;DHT22;838;51.794;12.258;2022-11-15T21:56:34;8.50;88.70
1680;DHT22;838;51.794;12.258;2022-11-15T21:59:00;8.50;87.10
1680;DHT22;838;51.794;12.258;2022-11-15T22:01:26;8.40;86.20
1680;DHT22;838;51.794;12.258;2022-11-15T22:04:11;8.40;84.90
1680;DHT22;838;51.794;12.258;2022-11-15T22:06:37;8.20;84.60
1680;DHT22;838;51.794;12.258;2022-11-15T22:09:04;8.00;86.40